ローマ/フィウミチーノ の空港の天気 - METARとTAF

ローマ・レオナルド・ダ・ビンチ国際空港 ( LIRF / FCO ) - イタリア ローマ
飛行場実況気象(Metar)
観測時間06/26 10:20 CEST (06/26 08:20 UTC)
風向・風速南東 3m/s
視程10km以上
天気現象
なし
気温31℃
湿度43%
気圧1014hPa
METARLIRF 260820Z 14005KT 080V190 CAVOK 31/17 Q1014 NOSIG
過去の天気等 Google飛行場航空写真 Wunderground天気予報

過去48時間のMETAR

飛行場予報(TAF)
発表時間: 6/26 07:00 CEST (6/26 05:00 UTC)
予報対象時間: 26日8時 CEST ~ 27日14時 CEST
風向・風速北東 4m/s
視程10km以上
全天の4割程度の雲 雲底高度 1520m
26日10時 CEST ~ 26日12時 CEST に徐々に
風向・風速南 7m/s
26日23時 CEST ~ 27日1時 CEST に徐々に
風向・風速東 4m/s
27日10時 CEST ~ 27日12時 CEST に徐々に
風向・風速南南東 8m/s 瞬間風速 13m/s
TAF LIRF 260500Z 2606/2712 05007KT 9999 SCT050
BECMG 2608/2610 17013KT
BECMG 2621/2623 10008KT
BECMG 2708/2710 16016G26KT